• Join FlightAware (Why Join?)
  • Login
  • US Flag 
02:19AM EDT


 

Airport Tracker/Info


-or-


 

Live Flight TrackerFlight Track Log ✈ BJS444 ✈ 20-Apr-2013 ✈ KAPF - KOXC

Flight Track Log - Related Links

Times and Time Zones

All times are in EDT time to prevent confusion due to time zone crossing. See the BJS444 flight status page for this flight to view local times or setup timezone preferences in your user account.

Time Position Orientation Groundspeed Altitude Reporting Facility
EDT Latitude Longitude Course Direction KTS MPH feet Rate Location/Type
02:22PM 26.1128 -81.8956 23° Northeast 209 241 6,100  Level Miami Center
02:23PM 26.1772 -81.8983 358° North 171 197 8,700 2,880 Climbing Miami Center
02:24PM 26.2531 -81.8831 10° North 223 257 11,900 3,240 Climbing Miami Center
02:25PM 26.3453 -81.8683 North 268 308 15,200 3,060 Climbing Miami Center
02:26PM 27.3722 -81.1984 23° Northeast  Level Estimated
02:26PM 26.4483 -81.8494 North 328 377 18,100  Level Miami Center
02:27PM 27.4904 -81.1418 23° Northeast  Level Estimated
02:27PM 26.5531 -81.8356 North 360 414 21,100  Level Miami Center
02:28PM 26.6644 -81.8122 11° North 389 448 23,500 2,160 Climbing Miami Center
02:29PM 26.7822 -81.7917 North 413 475 25,500 1,980 Climbing Miami Center
02:30PM 26.9042 -81.7667 10° North 425 489 27,500 2,040 Climbing Miami Center
02:31PM 27.0381 -81.7536 North 435 501 29,600 1,800 Climbing Miami Center
02:32PM 27.1539 -81.7842 347° North 429 494 31,100 1,500 Climbing Miami Center
02:33PM 27.2714 -81.8264 342° North 424 488 32,600 960 Climbing Miami Center
02:34PM 27.3811 -81.8569 346° North 441 507 33,100 900 Climbing Miami Center
02:35PM 27.5133 -81.8344 North 465 535 34,400 1,200 Climbing Miami Center
02:36PM 27.6578 -81.7636 23° Northeast 490 564 35,500 1,200 Climbing Miami Center
02:37PM 27.7869 -81.7011 23° Northeast 503 579 36,900 1,500 Climbing Miami Center
02:38PM 27.8994 -81.6494 22° Northeast 503 579 38,600 1,440 Climbing Miami Center
02:39PM 28.0181 -81.5933 23° Northeast 480 552 39,800 1,020 Climbing Miami Center
02:40PM 28.1414 -81.5844 North 451 519 40,700 600 Climbing Miami Center
02:41PM 28.2669 -81.5803 North 445 512 41,000 120 Climbing Miami Center
02:42PM 28.3919 -81.5783 North 445 512 41,000  Level Miami Center
02:43PM 28.5236 -81.5744 North 456 525 41,000  Level Miami Center
02:43PM 28.5878 -81.5733 North 484 557 41,000  Level Jacksonville Center
02:44PM 28.7233 -81.5692 North 501 577 41,000  Level Jacksonville Center
02:45PM 28.8525 -81.5628 North 489 563 41,000  Level Jacksonville Center
02:46PM 28.9861 -81.5586 North 476 548 41,000  Level Jacksonville Center
02:47PM 29.1197 -81.5519 North 476 548 41,000  Level Jacksonville Center
02:48PM 29.2531 -81.5453 North 476 548 41,000  Level Jacksonville Center
02:49PM 29.3844 -81.5197 10° North 476 548 41,000  Level Jacksonville Center
02:50PM 29.5156 -81.4989 North 476 548 41,000  Level Jacksonville Center
02:51PM 29.6594 -81.4706 10° North 481 554 41,000  Level Jacksonville Center
02:52PM 29.7886 -81.4472 North 476 548 41,000  Level Jacksonville Center
02:53PM 29.9197 -81.4258 North 471 542 41,000  Level Jacksonville Center
02:54PM 30.0531 -81.4000 10° North 471 542 41,000  Level Jacksonville Center
02:55PM 30.1864 -81.3761 North 476 548 41,000  Level Jacksonville Center
02:56PM 30.3242 -81.3525 North 487 560 41,000  Level Jacksonville Center
02:57PM 30.4594 -81.3286 North 487 560 41,000  Level Jacksonville Center
02:58PM 30.5950 -81.3069 North 487 560 41,000  Level Jacksonville Center
02:59PM 30.7325 -81.2831 North 487 560 41,000  Level Jacksonville Center
03:00PM 30.8678 -81.2492 12° North 487 560 41,000  Level Jacksonville Center
03:01PM 30.9919 -81.1719 28° Northeast 487 560 41,000  Level Jacksonville Center
03:02PM 31.1203 -81.0919 28° Northeast 504 580 41,000  Level Jacksonville Center
03:03PM 31.2464 -81.0117 29° Northeast 512 589 41,000  Level Jacksonville Center
03:04PM 31.3747 -80.9264 30° Northeast 519 597 41,000  Level Jacksonville Center
03:05PM 31.4883 -80.8558 28° Northeast 511 588 41,000  Level Jacksonville Center
03:06PM 31.6308 -80.7672 28° Northeast 511 588 41,000  Level Jacksonville Center
03:07PM 31.7569 -80.6886 28° Northeast 511 588 41,000  Level Jacksonville Center
03:08PM 31.8850 -80.6025 30° Northeast 516 594 41,000  Level Jacksonville Center
03:09PM 32.0150 -80.5208 28° Northeast 516 594 41,000  Level Jacksonville Center
03:10PM 32.1283 -80.4492 28° Northeast 511 588 41,000  Level Jacksonville Center
03:11PM 32.2561 -80.3622 30° Northeast 511 588 41,000  Level Jacksonville Center
03:12PM 32.3839 -80.2800 29° Northeast 511 588 41,000  Level Jacksonville Center
03:13PM 32.5136 -80.1950 29° Northeast 511 588 41,000  Level Jacksonville Center
03:14PM 32.6556 -80.1019 29° Northeast 516 594 41,000  Level Jacksonville Center
03:15PM 32.7831 -80.0189 29° Northeast 516 594 41,000  Level Jacksonville Center
03:16PM 32.9125 -79.9308 30° Northeast 516 594 41,000  Level Jacksonville Center
03:17PM 33.0419 -79.8447 29° Northeast 516 594 41,000  Level Jacksonville Center
03:18PM 33.1736 -79.7608 28° Northeast 516 594 41,000  Level Jacksonville Center
03:19PM 33.3028 -79.6742 29° Northeast 516 594 41,000  Level Jacksonville Center
03:20PM 33.4300 -79.5900 29° Northeast 516 594 41,000  Level Jacksonville Center
03:21PM 33.5614 -79.5003 30° Northeast 516 594 41,000  Level Jacksonville Center
03:22PM 33.6925 -79.4131 29° Northeast 521 600 41,000  Level Jacksonville Center
03:23PM 33.8011 -79.3411 29° Northeast 508 585 41,000  Level Jacksonville Center
03:24PM 33.9342 -79.2533 29° Northeast 513 590 41,000  Level Jacksonville Center
03:27PM 34.2111 -79.0675 29° Northeast 536 617 41,000  Level Washington Center
03:28PM 34.3411 -78.9747 31° Northeast 536 617 41,000  Level Washington Center
03:29PM 34.4689 -78.8769 32° Northeast 536 617 41,000  Level Washington Center
03:30PM 34.6056 -78.7661 34° Northeast 536 617 41,000  Level Washington Center
03:31PM 34.7247 -78.6775 31° Northeast 552 635 41,000  Level Washington Center
03:32PM 34.8608 -78.5711 33° Northeast 546 628 41,000  Level Washington Center
03:33PM 34.9883 -78.4769 31° Northeast 541 623 41,000  Level Washington Center
03:34PM 35.1158 -78.3750 33° Northeast 536 617 41,000  Level Washington Center
03:35PM 35.2456 -78.2753 32° Northeast 541 623 41,000  Level Washington Center
03:36PM 35.3750 -78.1750 32° Northeast 541 623 41,000  Level Washington Center
03:37PM 35.4917 -78.0844 32° Northeast 546 628 41,000  Level Washington Center
03:38PM 35.6211 -77.9836 32° Northeast 551 634 41,000  Level Washington Center
03:39PM 35.7522 -77.8828 32° Northeast 556 640 41,000  Level Washington Center
03:40PM 35.8814 -77.7814 32° Northeast 556 640 41,000  Level Washington Center
03:41PM 36.0086 -77.6794 33° Northeast 556 640 41,000  Level Washington Center
03:42PM 36.1294 -77.5644 38° Northeast 556 640 41,000  Level Washington Center
03:43PM 36.2628 -77.4417 37° Northeast 551 634 41,000  Level Washington Center
03:44PM 36.3750 -77.3333 38° Northeast 546 628 41,000  Level Washington Center
03:45PM 36.4956 -77.2197 37° Northeast 552 635 41,000  Level Washington Center
03:46PM 36.6203 -77.1006 37° Northeast 557 641 41,000  Level Washington Center
03:47PM 36.7425 -76.9864 37° Northeast 557 641 41,000  Level Washington Center
03:48PM 36.8586 -76.8586 41° Northeast 557 641 41,000  Level Washington Center
03:49PM 36.9747 -76.7281 42° Northeast 557 641 41,000  Level Washington Center
03:50PM 37.0906 -76.5942 43° Northeast 557 641 41,000  Level Washington Center
03:51PM 37.2169 -76.4472 43° Northeast 557 641 41,000  Level Washington Center
03:52PM 37.3347 -76.3128 42° Northeast 557 641 41,000  Level Washington Center
03:53PM 37.4458 -76.1831 43° Northeast 557 641 41,000  Level Washington Center
03:54PM 37.5653 -76.0531 41° Northeast 557 641 41,000  Level Washington Center
03:55PM 37.6783 -75.9172 44° Northeast 557 641 41,000  Level Washington Center
03:56PM 37.7933 -75.7836 43° Northeast 557 641 41,000  Level Washington Center
03:57PM 37.9061 -75.6444 44° Northeast 557 641 41,000  Level Washington Center
03:58PM 38.0189 -75.5181 41° Northeast 552 635 41,000  Level Washington Center
03:59PM 38.1500 -75.4122 32° Northeast 547 629 41,000  Level Washington Center
04:00PM 38.2875 -75.3272 26° Northeast 547 629 41,000  Level Washington Center
04:01PM 38.4103 -75.2472 27° Northeast 542 624 41,000 -360 Level Washington Center
04:02PM 38.5475 -75.1536 28° Northeast 542 624 40,300 -900 Descending Washington Center
04:03PM 38.6869 -75.0597 28° Northeast 547 629 39,300 -1,260 Descending Washington Center
04:04PM 38.8283 -74.9761 25° Northeast 552 635 37,800 -1,500 Descending Washington Center
04:05PM 38.9694 -74.8867 26° Northeast 552 635 36,400 -1,740 Descending Washington Center
04:06PM 39.1064 -74.7758 32° Northeast 557 641 34,400 -2,760 Descending Washington Center
04:07PM 39.2156 -74.6219 47° Northeast 563 648 30,900 -3,720 Descending Washington Center
04:08PM 39.3183 -74.4594 51° Northeast 569 655 27,000 -3,240 Descending Washington Center
04:10PM 39.5300 -74.1325 50° Northeast 543 625 21,000 -2,100 Descending New York Center
04:11PM 39.6086 -74.0069 51° Northeast 505 581 20,500 -840 Descending New York Center
04:12PM 39.6978 -73.8681 50° Northeast 499 574 19,400 -840 Descending New York Center
04:13PM 39.7869 -73.7261 51° Northeast 499 574 18,900 -780 Descending New York Center
04:14PM 39.8717 -73.5892 51° Northeast 499 574 17,900 -960 Descending New York Center
04:15PM 39.9664 -73.4631 46° Northeast 488 562 17,000 -1,080 Descending New York Center
04:17PM 40.2100 -73.1764 42° Northeast 466 536 14,400 -1,080 Descending Boston Center
04:18PM 40.3022 -73.0658 42° Northeast 451 519 13,400 -1,200 Descending Boston Center
04:20PM 40.4667 -72.8833 40° Northeast 416 479 11,100 -1,320 Descending New York TRACON
04:21PM 40.5333 -72.7833 49° Northeast 358 412 9,800 -1,380 Descending New York TRACON
04:22PM 40.6000 -72.7000 43° Northeast 317 365 8,400 -1,560 Descending New York TRACON
04:23PM 40.6833 -72.6833 North 272 313 6,600 -1,620 Descending New York TRACON
04:24PM 40.7500 -72.7000 349° North 254 292 5,200 -1,320 Descending New York TRACON
04:25PM 40.8167 -72.7333 339° North 248 285 4,200 -600 Descending New York TRACON
04:26PM 40.8833 -72.7667 339° North 246 283 4,100 -360 Descending New York TRACON
04:27PM 40.9333 -72.8167 323° Northwest 237 273 3,500 -480 Descending New York TRACON
04:28PM 41.0000 -72.8500 339° North 244 281 3,100 -240 Descending New York TRACON
04:29PM 41.0500 -72.8833 333° Northwest 214 246 3,100  Level New York TRACON
04:30PM 41.1000 -72.9167 333° Northwest 205 236 3,100  Level New York TRACON
04:31PM 41.1667 -72.9667 331° Northwest 207 238 3,100  Level New York TRACON
04:32PM 41.2000 -72.9833 339° North 175 201 3,100  Level New York TRACON
04:33PM 41.2500 -73.0167 333° Northwest 177 204 3,100  Level New York TRACON
04:34PM 41.2833 -73.0500 323° Northwest 174 200 3,100  Level New York TRACON